sensor_id;sensor_type;location;lat;lon;timestamp;P1;durP1;ratioP1;P2;durP2;ratioP2
39566;SDS011;25241;41.978;14.664;2024-03-06T03:08:33;6.70;;;1.33;;
39566;SDS011;25241;41.978;14.664;2024-03-06T03:11:01;2.30;;;1.42;;
39566;SDS011;25241;41.978;14.664;2024-03-06T03:13:26;6.82;;;1.02;;
39566;SDS011;25241;41.978;14.664;2024-03-06T03:15:54;2.22;;;1.05;;
39566;SDS011;25241;41.978;14.664;2024-03-06T03:18:20;12.52;;;1.52;;
39566;SDS011;25241;41.978;14.664;2024-03-06T03:20:45;1.80;;;1.00;;
39566;SDS011;25241;41.978;14.664;2024-03-06T03:23:12;4.60;;;1.60;;
39566;SDS011;25241;41.978;14.664;2024-03-06T03:25:42;5.47;;;1.27;;
39566;SDS011;25241;41.978;14.664;2024-03-06T03:28:08;1.58;;;0.90;;
39566;SDS011;25241;41.978;14.664;2024-03-06T03:30:35;3.83;;;0.75;;
39566;SDS011;25241;41.978;14.664;2024-03-06T03:33:00;2.97;;;1.23;;
39566;SDS011;25241;41.978;14.664;2024-03-06T03:35:28;2.35;;;1.10;;
39566;SDS011;25241;41.978;14.664;2024-03-06T03:37:54;2.60;;;1.50;;
39566;SDS011;25241;41.978;14.664;2024-03-06T03:40:20;2.70;;;1.65;;
39566;SDS011;25241;41.978;14.664;2024-03-06T03:42:46;3.70;;;1.65;;
39566;SDS011;25241;41.978;14.664;2024-03-06T03:45:12;1.48;;;1.30;;
39566;SDS011;25241;41.978;14.664;2024-03-06T03:47:41;2.85;;;1.33;;
39566;SDS011;25241;41.978;14.664;2024-03-06T03:50:08;1.88;;;1.17;;
39566;SDS011;25241;41.978;14.664;2024-03-06T03:52:34;6.07;;;1.42;;
39566;SDS011;25241;41.978;14.664;2024-03-06T03:55:02;8.68;;;1.33;;
39566;SDS011;25241;41.978;14.664;2024-03-06T03:57:31;3.88;;;1.20;;
39566;SDS011;25241;41.978;14.664;2024-03-06T03:59:56;8.82;;;1.88;;
39566;SDS011;25241;41.978;14.664;2024-03-06T04:02:22;2.28;;;1.30;;
39566;SDS011;25241;41.978;14.664;2024-03-06T04:04:50;3.22;;;1.52;;
39566;SDS011;25241;41.978;14.664;2024-03-06T04:07:15;6.47;;;1.70;;
39566;SDS011;25241;41.978;14.664;2024-03-06T04:09:44;3.00;;;1.38;;
39566;SDS011;25241;41.978;14.664;2024-03-06T04:12:12;4.25;;;1.25;;
39566;SDS011;25241;41.978;14.664;2024-03-06T04:14:37;5.47;;;1.40;;
39566;SDS011;25241;41.978;14.664;2024-03-06T04:17:03;2.33;;;1.50;;
39566;SDS011;25241;41.978;14.664;2024-03-06T04:19:31;3.70;;;1.90;;
39566;SDS011;25241;41.978;14.664;2024-03-06T04:21:57;14.05;;;1.95;;
39566;SDS011;25241;41.978;14.664;2024-03-06T04:24:23;3.22;;;1.60;;
39566;SDS011;25241;41.978;14.664;2024-03-06T04:26:51;1.05;;;0.88;;
39566;SDS011;25241;41.978;14.664;2024-03-06T04:29:16;7.32;;;1.80;;
39566;SDS011;25241;41.978;14.664;2024-03-06T04:31:45;3.13;;;1.33;;
39566;SDS011;25241;41.978;14.664;2024-03-06T04:34:13;3.03;;;1.20;;
39566;SDS011;25241;41.978;14.664;2024-03-06T04:36:38;2.47;;;1.30;;
39566;SDS011;25241;41.978;14.664;2024-03-06T04:39:06;4.72;;;2.03;;
39566;SDS011;25241;41.978;14.664;2024-03-06T04:41:34;3.80;;;1.42;;
39566;SDS011;25241;41.978;14.664;2024-03-06T04:44:00;3.20;;;1.65;;
39566;SDS011;25241;41.978;14.664;2024-03-06T04:46:26;4.65;;;1.33;;
39566;SDS011;25241;41.978;14.664;2024-03-06T04:48:52;5.05;;;2.17;;
39566;SDS011;25241;41.978;14.664;2024-03-06T04:51:18;3.53;;;1.38;;
39566;SDS011;25241;41.978;14.664;2024-03-06T04:53:47;8.40;;;1.13;;
39566;SDS011;25241;41.978;14.664;2024-03-06T04:56:15;3.40;;;1.98;;
39566;SDS011;25241;41.978;14.664;2024-03-06T04:58:46;1.52;;;1.10;;
39566;SDS011;25241;41.978;14.664;2024-03-06T05:01:14;3.13;;;1.20;;
39566;SDS011;25241;41.978;14.664;2024-03-06T05:03:39;7.25;;;1.15;;
39566;SDS011;25241;41.978;14.664;2024-03-06T05:06:05;4.18;;;1.58;;
39566;SDS011;25241;41.978;14.664;2024-03-06T05:08:33;3.13;;;1.02;;
39566;SDS011;25241;41.978;14.664;2024-03-06T05:10:59;2.30;;;1.33;;
39566;SDS011;25241;41.978;14.664;2024-03-06T05:13:28;5.25;;;1.92;;
39566;SDS011;25241;41.978;14.664;2024-03-06T05:15:56;1.73;;;1.13;;
39566;SDS011;25241;41.978;14.664;2024-03-06T05:18:24;2.17;;;1.40;;
39566;SDS011;25241;41.978;14.664;2024-03-06T05:20:49;1.10;;;0.80;;
39566;SDS011;25241;41.978;14.664;2024-03-06T05:23:15;4.43;;;1.00;;
39566;SDS011;25241;41.978;14.664;2024-03-06T05:25:45;3.42;;;1.13;;
39566;SDS011;25241;41.978;14.664;2024-03-06T05:28:13;2.58;;;1.38;;
39566;SDS011;25241;41.978;14.664;2024-03-06T05:30:39;2.67;;;1.40;;
39566;SDS011;25241;41.978;14.664;2024-03-06T05:33:05;2.00;;;1.10;;
39566;SDS011;25241;41.978;14.664;2024-03-06T05:35:33;1.98;;;1.48;;
39566;SDS011;25241;41.978;14.664;2024-03-06T05:37:58;3.20;;;1.60;;
39566;SDS011;25241;41.978;14.664;2024-03-06T05:40:24;8.20;;;1.67;;
39566;SDS011;25241;41.978;14.664;2024-03-06T05:42:49;3.60;;;1.40;;
39566;SDS011;25241;41.978;14.664;2024-03-06T05:45:18;7.22;;;2.47;;
39566;SDS011;25241;41.978;14.664;2024-03-06T05:47:44;8.40;;;3.00;;
39566;SDS011;25241;41.978;14.664;2024-03-06T05:50:11;12.52;;;4.25;;
39566;SDS011;25241;41.978;14.664;2024-03-06T05:52:36;11.52;;;4.18;;
39566;SDS011;25241;41.978;14.664;2024-03-06T05:55:02;12.00;;;3.63;;
39566;SDS011;25241;41.978;14.664;2024-03-06T05:57:31;4.37;;;1.43;;
39566;SDS011;25241;41.978;14.664;2024-03-06T05:59:59;3.63;;;1.20;;
39566;SDS011;25241;41.978;14.664;2024-03-06T06:02:27;3.30;;;1.65;;
39566;SDS011;25241;41.978;14.664;2024-03-06T06:04:55;3.30;;;1.10;;
39566;SDS011;25241;41.978;14.664;2024-03-06T06:07:21;4.43;;;1.50;;
39566;SDS011;25241;41.978;14.664;2024-03-06T06:09:49;3.90;;;2.13;;
39566;SDS011;25241;41.978;14.664;2024-03-06T06:12:14;3.97;;;1.80;;
39566;SDS011;25241;41.978;14.664;2024-03-06T06:19:30;1.40;;;0.80;;
39566;SDS011;25241;41.978;14.664;2024-03-06T06:29:15;2.13;;;1.25;;
39566;SDS011;25241;41.978;14.664;2024-03-06T06:31:43;5.15;;;1.40;;
39566;SDS011;25241;41.978;14.664;2024-03-06T06:34:09;2.95;;;1.08;;
39566;SDS011;25241;41.978;14.664;2024-03-06T06:36:37;6.47;;;1.35;;
39566;SDS011;25241;41.978;14.664;2024-03-06T06:39:08;2.03;;;0.98;;
39566;SDS011;25241;41.978;14.664;2024-03-06T06:41:33;1.92;;;0.95;;
39566;SDS011;25241;41.978;14.664;2024-03-06T06:43:59;2.97;;;1.52;;
39566;SDS011;25241;41.978;14.664;2024-03-06T06:46:24;5.38;;;1.77;;
39566;SDS011;25241;41.978;14.664;2024-03-06T06:48:50;5.95;;;1.90;;
39566;SDS011;25241;41.978;14.664;2024-03-06T06:53:43;9.38;;;1.52;;
39566;SDS011;25241;41.978;14.664;2024-03-06T06:56:09;9.85;;;1.88;;
39566;SDS011;25241;41.978;14.664;2024-03-06T06:58:34;9.70;;;1.90;;
39566;SDS011;25241;41.978;14.664;2024-03-06T07:01:00;6.70;;;1.88;;
39566;SDS011;25241;41.978;14.664;2024-03-06T07:03:26;3.47;;;1.92;;
39566;SDS011;25241;41.978;14.664;2024-03-06T07:05:55;11.83;;;3.30;;
39566;SDS011;25241;41.978;14.664;2024-03-06T07:08:22;5.38;;;2.10;;
39566;SDS011;25241;41.978;14.664;2024-03-06T07:10:50;19.85;;;2.63;;
39566;SDS011;25241;41.978;14.664;2024-03-06T07:13:18;8.13;;;3.40;;
39566;SDS011;25241;41.978;14.664;2024-03-06T07:15:44;8.32;;;2.20;;
39566;SDS011;25241;41.978;14.664;2024-03-06T07:18:09;25.65;;;3.53;;
39566;SDS011;25241;41.978;14.664;2024-03-06T07:20:35;28.60;;;3.20;;
39566;SDS011;25241;41.978;14.664;2024-03-06T07:23:01;61.40;;;3.20;;
39566;SDS011;25241;41.978;14.664;2024-03-06T07:25:29;16.45;;;2.03;;
39566;SDS011;25241;41.978;14.664;2024-03-06T07:27:54;5.70;;;2.17;;
39566;SDS011;25241;41.978;14.664;2024-03-06T08:14:05;4.90;;;0.90;;
39566;SDS011;25241;41.978;14.664;2024-03-06T08:16:33;5.57;;;1.48;;
39566;SDS011;25241;41.978;14.664;2024-03-06T08:19:01;7.15;;;1.23;;
39566;SDS011;25241;41.978;14.664;2024-03-06T08:21:27;4.30;;;1.80;;
39566;SDS011;25241;41.978;14.664;2024-03-06T09:27:07;0.40;;;0.20;;
39566;SDS011;25241;41.978;14.664;2024-03-06T09:29:35;3.33;;;0.55;;
39566;SDS011;25241;41.978;14.664;2024-03-06T09:32:03;2.95;;;0.40;;
39566;SDS011;25241;41.978;14.664;2024-03-06T09:34:29;4.05;;;0.68;;
39566;SDS011;25241;41.978;14.664;2024-03-06T09:36:54;1.25;;;0.30;;
39566;SDS011;25241;41.978;14.664;2024-03-06T09:39:22;3.17;;;0.30;;
39566;SDS011;25241;41.978;14.664;2024-03-06T09:41:51;3.40;;;0.30;;
39566;SDS011;25241;41.978;14.664;2024-03-06T09:44:20;5.82;;;1.23;;
39566;SDS011;25241;41.978;14.664;2024-03-06T09:46:47;3.03;;;0.77;;
39566;SDS011;25241;41.978;14.664;2024-03-06T11:40:25;3.50;;;0.52;;
39566;SDS011;25241;41.978;14.664;2024-03-06T12:24:31;4.65;;;1.45;;
39566;SDS011;25241;41.978;14.664;2024-03-06T12:27:00;7.57;;;2.05;;
39566;SDS011;25241;41.978;14.664;2024-03-06T12:29:31;5.97;;;1.00;;
39566;SDS011;25241;41.978;14.664;2024-03-06T12:32:03;4.55;;;0.70;;
39566;SDS011;25241;41.978;14.664;2024-03-06T12:34:29;5.80;;;0.68;;
39566;SDS011;25241;41.978;14.664;2024-03-06T12:37:07;4.47;;;1.55;;
39566;SDS011;25241;41.978;14.664;2024-03-06T12:39:36;5.45;;;2.47;;
39566;SDS011;25241;41.978;14.664;2024-03-06T12:42:02;6.05;;;1.58;;
39566;SDS011;25241;41.978;14.664;2024-03-06T12:44:27;6.38;;;1.52;;
39566;SDS011;25241;41.978;14.664;2024-03-06T12:46:53;3.55;;;1.38;;
39566;SDS011;25241;41.978;14.664;2024-03-06T12:49:18;5.63;;;1.02;;
39566;SDS011;25241;41.978;14.664;2024-03-06T12:51:44;4.68;;;0.93;;
39566;SDS011;25241;41.978;14.664;2024-03-06T12:54:09;7.60;;;1.08;;
39566;SDS011;25241;41.978;14.664;2024-03-06T12:56:35;5.72;;;1.30;;
39566;SDS011;25241;41.978;14.664;2024-03-06T12:59:01;3.22;;;0.70;;
39566;SDS011;25241;41.978;14.664;2024-03-06T13:01:26;1.75;;;0.43;;
39566;SDS011;25241;41.978;14.664;2024-03-06T13:03:52;0.25;;;0.22;;
39566;SDS011;25241;41.978;14.664;2024-03-06T13:06:17;2.15;;;0.68;;
39566;SDS011;25241;41.978;14.664;2024-03-06T13:08:43;0.45;;;0.35;;
39566;SDS011;25241;41.978;14.664;2024-03-06T13:11:11;2.10;;;0.40;;
39566;SDS011;25241;41.978;14.664;2024-03-06T13:13:37;3.33;;;1.05;;
39566;SDS011;25241;41.978;14.664;2024-03-06T13:16:02;6.47;;;1.15;;
39566;SDS011;25241;41.978;14.664;2024-03-06T13:18:28;4.97;;;0.90;;
39566;SDS011;25241;41.978;14.664;2024-03-06T13:20:56;3.67;;;0.90;;
39566;SDS011;25241;41.978;14.664;2024-03-06T13:23:23;34.33;;;2.97;;
39566;SDS011;25241;41.978;14.664;2024-03-06T13:25:49;9.38;;;1.40;;
39566;SDS011;25241;41.978;14.664;2024-03-06T13:28:15;2.78;;;0.93;;
39566;SDS011;25241;41.978;14.664;2024-03-06T13:30:40;4.72;;;0.95;;
39566;SDS011;25241;41.978;14.664;2024-03-06T13:33:06;7.35;;;1.58;;
39566;SDS011;25241;41.978;14.664;2024-03-06T13:35:32;2.22;;;1.02;;
39566;SDS011;25241;41.978;14.664;2024-03-06T13:38:00;1.95;;;0.40;;
39566;SDS011;25241;41.978;14.664;2024-03-06T13:40:30;1.60;;;0.38;;
39566;SDS011;25241;41.978;14.664;2024-03-06T13:42:58;1.45;;;0.38;;
39566;SDS011;25241;41.978;14.664;2024-03-06T13:45:24;1.30;;;0.30;;
39566;SDS011;25241;41.978;14.664;2024-03-06T13:47:54;4.38;;;0.80;;
39566;SDS011;25241;41.978;14.664;2024-03-06T13:50:22;2.90;;;0.75;;
39566;SDS011;25241;41.978;14.664;2024-03-06T13:52:48;5.07;;;1.05;;
39566;SDS011;25241;41.978;14.664;2024-03-06T13:55:14;3.90;;;1.45;;
39566;SDS011;25241;41.978;14.664;2024-03-06T13:57:39;1.88;;;0.60;;
39566;SDS011;25241;41.978;14.664;2024-03-06T14:00:06;1.45;;;0.50;;
39566;SDS011;25241;41.978;14.664;2024-03-06T14:02:37;7.18;;;1.10;;
39566;SDS011;25241;41.978;14.664;2024-03-06T14:05:04;2.40;;;0.70;;
39566;SDS011;25241;41.978;14.664;2024-03-06T14:07:33;1.38;;;0.90;;
39566;SDS011;25241;41.978;14.664;2024-03-06T14:09:59;1.48;;;0.20;;
39566;SDS011;25241;41.978;14.664;2024-03-06T14:12:27;6.25;;;0.93;;
39566;SDS011;25241;41.978;14.664;2024-03-06T14:14:53;0.13;;;0.13;;
39566;SDS011;25241;41.978;14.664;2024-03-06T14:17:18;0.88;;;0.40;;
39566;SDS011;25241;41.978;14.664;2024-03-06T14:19:44;4.25;;;0.60;;
39566;SDS011;25241;41.978;14.664;2024-03-06T14:22:10;0.52;;;0.22;;
39566;SDS011;25241;41.978;14.664;2024-03-06T14:24:36;1.70;;;0.50;;
39566;SDS011;25241;41.978;14.664;2024-03-06T14:27:02;3.25;;;1.10;;
39566;SDS011;25241;41.978;14.664;2024-03-06T14:29:30;2.33;;;0.68;;
39566;SDS011;25241;41.978;14.664;2024-03-06T14:31:56;1.08;;;0.57;;
39566;SDS011;25241;41.978;14.664;2024-03-06T14:34:22;2.70;;;0.57;;
39566;SDS011;25241;41.978;14.664;2024-03-06T14:36:51;6.75;;;1.02;;
39566;SDS011;25241;41.978;14.664;2024-03-06T14:39:17;5.80;;;2.28;;
39566;SDS011;25241;41.978;14.664;2024-03-06T14:41:51;4.43;;;1.77;;
39566;SDS011;25241;41.978;14.664;2024-03-06T14:44:16;9.70;;;1.85;;
39566;SDS011;25241;41.978;14.664;2024-03-06T14:46:42;1.85;;;1.15;;
39566;SDS011;25241;41.978;14.664;2024-03-06T14:49:08;9.88;;;0.73;;
39566;SDS011;25241;41.978;14.664;2024-03-06T14:51:34;2.40;;;0.63;;
39566;SDS011;25241;41.978;14.664;2024-03-06T14:54:00;4.35;;;0.95;;
39566;SDS011;25241;41.978;14.664;2024-03-06T14:56:25;3.03;;;1.05;;
39566;SDS011;25241;41.978;14.664;2024-03-06T14:58:51;3.17;;;0.47;;
39566;SDS011;25241;41.978;14.664;2024-03-06T15:01:17;4.13;;;1.30;;
39566;SDS011;25241;41.978;14.664;2024-03-06T15:03:45;4.60;;;0.77;;
39566;SDS011;25241;41.978;14.664;2024-03-06T15:06:14;2.50;;;0.82;;
39566;SDS011;25241;41.978;14.664;2024-03-06T15:08:40;8.43;;;1.35;;
39566;SDS011;25241;41.978;14.664;2024-03-06T15:11:06;9.68;;;2.08;;
39566;SDS011;25241;41.978;14.664;2024-03-06T15:13:32;17.05;;;6.22;;
39566;SDS011;25241;41.978;14.664;2024-03-06T15:15:58;35.17;;;9.32;;
39566;SDS011;25241;41.978;14.664;2024-03-06T15:18:24;10.18;;;3.05;;
39566;SDS011;25241;41.978;14.664;2024-03-06T15:20:50;6.53;;;2.05;;
39566;SDS011;25241;41.978;14.664;2024-03-06T15:23:17;7.72;;;3.25;;
39566;SDS011;25241;41.978;14.664;2024-03-06T15:25:42;10.73;;;3.60;;
39566;SDS011;25241;41.978;14.664;2024-03-06T15:28:10;8.90;;;5.72;;
39566;SDS011;25241;41.978;14.664;2024-03-06T15:30:36;23.15;;;6.68;;
39566;SDS011;25241;41.978;14.664;2024-03-06T15:33:02;18.55;;;7.28;;
39566;SDS011;25241;41.978;14.664;2024-03-06T15:35:29;6.47;;;2.60;;
39566;SDS011;25241;41.978;14.664;2024-03-06T15:37:57;10.57;;;1.85;;
39566;SDS011;25241;41.978;14.664;2024-03-06T15:40:23;3.50;;;1.58;;
39566;SDS011;25241;41.978;14.664;2024-03-06T15:42:48;7.93;;;0.98;;
39566;SDS011;25241;41.978;14.664;2024-03-06T15:45:16;3.15;;;1.00;;
39566;SDS011;25241;41.978;14.664;2024-03-06T15:47:42;6.93;;;1.92;;
39566;SDS011;25241;41.978;14.664;2024-03-06T15:50:09;5.00;;;1.75;;
39566;SDS011;25241;41.978;14.664;2024-03-06T18:42:53;6.03;;;1.75;;
39566;SDS011;25241;41.978;14.664;2024-03-06T18:45:21;2.50;;;1.30;;
39566;SDS011;25241;41.978;14.664;2024-03-06T18:47:49;4.18;;;1.05;;
39566;SDS011;25241;41.978;14.664;2024-03-06T18:50:17;7.47;;;2.45;;
39566;SDS011;25241;41.978;14.664;2024-03-06T18:52:45;2.15;;;1.23;;
39566;SDS011;25241;41.978;14.664;2024-03-06T18:55:13;8.57;;;3.25;;
39566;SDS011;25241;41.978;14.664;2024-03-06T18:57:39;7.70;;;2.00;;
39566;SDS011;25241;41.978;14.664;2024-03-06T19:00:06;4.72;;;1.45;;
39566;SDS011;25241;41.978;14.664;2024-03-06T19:02:32;3.53;;;1.42;;
39566;SDS011;25241;41.978;14.664;2024-03-06T19:04:58;5.78;;;1.70;;
39566;SDS011;25241;41.978;14.664;2024-03-06T19:07:26;4.40;;;0.90;;
39566;SDS011;25241;41.978;14.664;2024-03-06T19:09:55;2.08;;;1.20;;
39566;SDS011;25241;41.978;14.664;2024-03-06T19:12:24;4.72;;;1.50;;
39566;SDS011;25241;41.978;14.664;2024-03-06T19:14:52;2.72;;;1.45;;
39566;SDS011;25241;41.978;14.664;2024-03-06T19:17:18;6.07;;;1.02;;
39566;SDS011;25241;41.978;14.664;2024-03-06T19:19:43;5.65;;;1.27;;
39566;SDS011;25241;41.978;14.664;2024-03-06T19:22:11;4.18;;;1.40;;
39566;SDS011;25241;41.978;14.664;2024-03-06T19:24:39;2.38;;;0.80;;
39566;SDS011;25241;41.978;14.664;2024-03-06T19:27:07;4.75;;;0.98;;
39566;SDS011;25241;41.978;14.664;2024-03-06T19:29:33;10.57;;;1.40;;
39566;SDS011;25241;41.978;14.664;2024-03-06T19:31:59;5.25;;;2.10;;
39566;SDS011;25241;41.978;14.664;2024-03-06T19:34:26;5.28;;;2.08;;
39566;SDS011;25241;41.978;14.664;2024-03-06T19:36:51;7.32;;;1.85;;
39566;SDS011;25241;41.978;14.664;2024-03-06T19:39:23;4.57;;;1.88;;
39566;SDS011;25241;41.978;14.664;2024-03-06T19:41:51;4.78;;;1.58;;
39566;SDS011;25241;41.978;14.664;2024-03-06T19:44:23;9.15;;;2.22;;
39566;SDS011;25241;41.978;14.664;2024-03-06T19:46:52;6.85;;;2.38;;
39566;SDS011;25241;41.978;14.664;2024-03-06T19:49:19;3.78;;;1.80;;
39566;SDS011;25241;41.978;14.664;2024-03-06T19:51:45;11.40;;;3.85;;
39566;SDS011;25241;41.978;14.664;2024-03-06T19:54:10;23.83;;;4.75;;
39566;SDS011;25241;41.978;14.664;2024-03-06T19:56:39;11.90;;;3.72;;
39566;SDS011;25241;41.978;14.664;2024-03-06T19:59:04;6.22;;;2.63;;
39566;SDS011;25241;41.978;14.664;2024-03-06T20:01:33;2.42;;;1.52;;
39566;SDS011;25241;41.978;14.664;2024-03-06T20:03:59;6.32;;;1.77;;
39566;SDS011;25241;41.978;14.664;2024-03-06T20:06:28;7.43;;;1.40;;
39566;SDS011;25241;41.978;14.664;2024-03-06T20:08:58;13.93;;;3.20;;
39566;SDS011;25241;41.978;14.664;2024-03-06T20:11:23;6.82;;;1.25;;
39566;SDS011;25241;41.978;14.664;2024-03-06T20:13:52;4.00;;;1.40;;
39566;SDS011;25241;41.978;14.664;2024-03-06T20:16:20;2.03;;;1.00;;
39566;SDS011;25241;41.978;14.664;2024-03-06T20:18:46;2.10;;;1.45;;
39566;SDS011;25241;41.978;14.664;2024-03-06T20:21:15;4.65;;;1.92;;
39566;SDS011;25241;41.978;14.664;2024-03-06T20:23:43;12.85;;;1.88;;
39566;SDS011;25241;41.978;14.664;2024-03-06T20:26:08;10.60;;;3.20;;
39566;SDS011;25241;41.978;14.664;2024-03-06T20:28:38;10.50;;;3.58;;
39566;SDS011;25241;41.978;14.664;2024-03-06T20:31:03;1.70;;;1.02;;
39566;SDS011;25241;41.978;14.664;2024-03-06T20:33:30;6.55;;;1.85;;
39566;SDS011;25241;41.978;14.664;2024-03-06T20:35:58;5.97;;;1.90;;
39566;SDS011;25241;41.978;14.664;2024-03-06T20:38:26;12.18;;;3.63;;
39566;SDS011;25241;41.978;14.664;2024-03-06T20:40:52;15.35;;;4.70;;
39566;SDS011;25241;41.978;14.664;2024-03-06T20:43:17;10.65;;;4.35;;
39566;SDS011;25241;41.978;14.664;2024-03-06T20:45:45;19.45;;;4.40;;
39566;SDS011;25241;41.978;14.664;2024-03-06T20:48:15;10.32;;;3.83;;
39566;SDS011;25241;41.978;14.664;2024-03-06T20:50:40;11.93;;;4.10;;
39566;SDS011;25241;41.978;14.664;2024-03-06T20:53:09;10.20;;;4.05;;
39566;SDS011;25241;41.978;14.664;2024-03-06T20:58:02;1.50;;;0.55;;
39566;SDS011;25241;41.978;14.664;2024-03-06T21:00:28;7.32;;;1.05;;
39566;SDS011;25241;41.978;14.664;2024-03-06T21:02:55;8.77;;;2.20;;
39566;SDS011;25241;41.978;14.664;2024-03-06T21:05:23;6.63;;;2.70;;
39566;SDS011;25241;41.978;14.664;2024-03-06T21:07:52;5.53;;;1.02;;
39566;SDS011;25241;41.978;14.664;2024-03-06T21:10:20;4.32;;;2.03;;
39566;SDS011;25241;41.978;14.664;2024-03-06T21:12:45;4.60;;;2.10;;
39566;SDS011;25241;41.978;14.664;2024-03-06T21:15:14;12.50;;;1.80;;
39566;SDS011;25241;41.978;14.664;2024-03-06T21:17:42;7.60;;;0.68;;
39566;SDS011;25241;41.978;14.664;2024-03-06T21:20:11;0.93;;;0.85;;
39566;SDS011;25241;41.978;14.664;2024-03-06T21:22:42;1.98;;;0.55;;
39566;SDS011;25241;41.978;14.664;2024-03-06T21:25:08;1.73;;;1.15;;
39566;SDS011;25241;41.978;14.664;2024-03-06T21:27:35;3.72;;;1.13;;
39566;SDS011;25241;41.978;14.664;2024-03-06T21:30:02;3.33;;;1.10;;
39566;SDS011;25241;41.978;14.664;2024-03-06T21:32:34;4.82;;;0.90;;
